sensor_id;sensor_type;location;lat;lon;timestamp;P1;durP1;ratioP1;P2;durP2;ratioP2
6358;SDS011;3212;51.460;11.868;2023-08-07T00:03:09;2.03;;;1.60;;
6358;SDS011;3212;51.460;11.868;2023-08-07T00:06:32;1.97;;;1.50;;
6358;SDS011;3212;51.460;11.868;2023-08-07T00:09:55;1.60;;;1.50;;
6358;SDS011;3212;51.460;11.868;2023-08-07T00:13:18;3.13;;;1.80;;
6358;SDS011;3212;51.460;11.868;2023-08-07T00:16:41;1.83;;;1.50;;
6358;SDS011;3212;51.460;11.868;2023-08-07T00:20:05;1.83;;;1.63;;
6358;SDS011;3212;51.460;11.868;2023-08-07T00:23:29;4.23;;;1.80;;
6358;SDS011;3212;51.460;11.868;2023-08-07T00:26:52;2.60;;;1.87;;
6358;SDS011;3212;51.460;11.868;2023-08-07T00:30:15;1.50;;;1.40;;
6358;SDS011;3212;51.460;11.868;2023-08-07T00:33:38;4.10;;;2.30;;
6358;SDS011;3212;51.460;11.868;2023-08-07T00:37:00;3.10;;;2.10;;
6358;SDS011;3212;51.460;11.868;2023-08-07T00:40:23;2.67;;;1.60;;
6358;SDS011;3212;51.460;11.868;2023-08-07T00:43:46;4.47;;;1.93;;
6358;SDS011;3212;51.460;11.868;2023-08-07T00:47:08;2.60;;;2.00;;
6358;SDS011;3212;51.460;11.868;2023-08-07T00:50:32;7.43;;;1.83;;
6358;SDS011;3212;51.460;11.868;2023-08-07T00:53:55;1.70;;;1.60;;
6358;SDS011;3212;51.460;11.868;2023-08-07T00:57:17;2.20;;;1.77;;
6358;SDS011;3212;51.460;11.868;2023-08-07T01:00:40;1.90;;;1.70;;
6358;SDS011;3212;51.460;11.868;2023-08-07T01:04:02;4.63;;;1.80;;
6358;SDS011;3212;51.460;11.868;2023-08-07T01:07:26;1.70;;;1.60;;
6358;SDS011;3212;51.460;11.868;2023-08-07T01:10:53;2.00;;;1.80;;
6358;SDS011;3212;51.460;11.868;2023-08-07T01:14:23;2.13;;;1.90;;
6358;SDS011;3212;51.460;11.868;2023-08-07T01:17:42;3.43;;;1.90;;
6358;SDS011;3212;51.460;11.868;2023-08-07T01:21:05;3.90;;;1.90;;
6358;SDS011;3212;51.460;11.868;2023-08-07T01:24:27;2.90;;;1.90;;
6358;SDS011;3212;51.460;11.868;2023-08-07T01:27:53;2.90;;;2.17;;
6358;SDS011;3212;51.460;11.868;2023-08-07T01:31:14;3.70;;;2.20;;
6358;SDS011;3212;51.460;11.868;2023-08-07T01:34:38;2.80;;;2.10;;
6358;SDS011;3212;51.460;11.868;2023-08-07T01:38:00;2.47;;;2.10;;
6358;SDS011;3212;51.460;11.868;2023-08-07T01:41:24;3.13;;;2.30;;
6358;SDS011;3212;51.460;11.868;2023-08-07T01:44:46;2.77;;;2.20;;
6358;SDS011;3212;51.460;11.868;2023-08-07T01:48:09;3.67;;;2.47;;
6358;SDS011;3212;51.460;11.868;2023-08-07T01:51:32;6.20;;;2.63;;
6358;SDS011;3212;51.460;11.868;2023-08-07T01:54:54;3.90;;;2.27;;
6358;SDS011;3212;51.460;11.868;2023-08-07T01:58:17;2.97;;;2.50;;
6358;SDS011;3212;51.460;11.868;2023-08-07T02:01:39;4.37;;;2.63;;
6358;SDS011;3212;51.460;11.868;2023-08-07T02:05:03;2.63;;;2.13;;
6358;SDS011;3212;51.460;11.868;2023-08-07T02:08:26;4.17;;;2.80;;
6358;SDS011;3212;51.460;11.868;2023-08-07T02:11:49;3.90;;;2.50;;
6358;SDS011;3212;51.460;11.868;2023-08-07T02:15:12;3.45;;;2.55;;
6358;SDS011;3212;51.460;11.868;2023-08-07T02:18:34;3.83;;;2.77;;
6358;SDS011;3212;51.460;11.868;2023-08-07T02:21:58;5.60;;;2.80;;
6358;SDS011;3212;51.460;11.868;2023-08-07T02:25:21;3.30;;;2.70;;
6358;SDS011;3212;51.460;11.868;2023-08-07T02:28:44;3.70;;;2.23;;
6358;SDS011;3212;51.460;11.868;2023-08-07T02:32:07;2.40;;;2.20;;
6358;SDS011;3212;51.460;11.868;2023-08-07T02:35:30;3.23;;;2.60;;
6358;SDS011;3212;51.460;11.868;2023-08-07T02:38:53;2.97;;;2.40;;
6358;SDS011;3212;51.460;11.868;2023-08-07T02:42:15;4.30;;;2.30;;
6358;SDS011;3212;51.460;11.868;2023-08-07T02:45:38;2.53;;;2.33;;
6358;SDS011;3212;51.460;11.868;2023-08-07T02:49:01;5.20;;;2.23;;
6358;SDS011;3212;51.460;11.868;2023-08-07T02:52:24;4.20;;;2.20;;
6358;SDS011;3212;51.460;11.868;2023-08-07T02:55:46;3.70;;;2.40;;
6358;SDS011;3212;51.460;11.868;2023-08-07T02:59:09;2.67;;;2.10;;
6358;SDS011;3212;51.460;11.868;2023-08-07T03:02:32;3.07;;;2.50;;
6358;SDS011;3212;51.460;11.868;2023-08-07T03:05:55;2.60;;;2.33;;
6358;SDS011;3212;51.460;11.868;2023-08-07T03:09:18;2.90;;;2.43;;
6358;SDS011;3212;51.460;11.868;2023-08-07T03:12:41;4.00;;;2.40;;
6358;SDS011;3212;51.460;11.868;2023-08-07T03:16:05;3.37;;;2.57;;
6358;SDS011;3212;51.460;11.868;2023-08-07T03:19:26;4.03;;;2.77;;
6358;SDS011;3212;51.460;11.868;2023-08-07T03:22:49;3.87;;;3.00;;
6358;SDS011;3212;51.460;11.868;2023-08-07T03:26:12;3.53;;;3.10;;
6358;SDS011;3212;51.460;11.868;2023-08-07T03:29:34;4.30;;;3.10;;
6358;SDS011;3212;51.460;11.868;2023-08-07T03:32:56;4.80;;;3.07;;
6358;SDS011;3212;51.460;11.868;2023-08-07T03:36:19;5.57;;;3.30;;
6358;SDS011;3212;51.460;11.868;2023-08-07T03:39:43;6.50;;;3.23;;
6358;SDS011;3212;51.460;11.868;2023-08-07T03:43:06;4.70;;;3.20;;
6358;SDS011;3212;51.460;11.868;2023-08-07T03:46:30;6.65;;;2.40;;
6358;SDS011;3212;51.460;11.868;2023-08-07T03:49:53;3.80;;;2.50;;
6358;SDS011;3212;51.460;11.868;2023-08-07T03:53:16;3.57;;;1.90;;
6358;SDS011;3212;51.460;11.868;2023-08-07T03:56:38;2.40;;;1.97;;
6358;SDS011;3212;51.460;11.868;2023-08-07T04:00:01;1.80;;;1.50;;
6358;SDS011;3212;51.460;11.868;2023-08-07T04:03:24;3.00;;;1.80;;
6358;SDS011;3212;51.460;11.868;2023-08-07T04:06:48;2.20;;;1.50;;
6358;SDS011;3212;51.460;11.868;2023-08-07T04:10:11;4.90;;;1.97;;
6358;SDS011;3212;51.460;11.868;2023-08-07T04:13:34;3.33;;;1.90;;
6358;SDS011;3212;51.460;11.868;2023-08-07T04:16:56;3.73;;;1.70;;
6358;SDS011;3212;51.460;11.868;2023-08-07T04:20:20;2.60;;;1.67;;
6358;SDS011;3212;51.460;11.868;2023-08-07T04:23:42;5.80;;;1.73;;
6358;SDS011;3212;51.460;11.868;2023-08-07T04:27:05;5.60;;;1.77;;
6358;SDS011;3212;51.460;11.868;2023-08-07T04:30:27;3.50;;;1.70;;
6358;SDS011;3212;51.460;11.868;2023-08-07T04:33:50;2.67;;;1.50;;
6358;SDS011;3212;51.460;11.868;2023-08-07T04:37:13;1.93;;;1.70;;
6358;SDS011;3212;51.460;11.868;2023-08-07T04:40:35;2.80;;;1.93;;
6358;SDS011;3212;51.460;11.868;2023-08-07T04:43:58;3.93;;;1.70;;
6358;SDS011;3212;51.460;11.868;2023-08-07T04:47:21;5.43;;;1.80;;
6358;SDS011;3212;51.460;11.868;2023-08-07T04:50:44;2.90;;;1.47;;
6358;SDS011;3212;51.460;11.868;2023-08-07T04:54:07;2.27;;;1.67;;
6358;SDS011;3212;51.460;11.868;2023-08-07T04:57:30;2.07;;;1.40;;
6358;SDS011;3212;51.460;11.868;2023-08-07T05:00:54;3.10;;;2.03;;
6358;SDS011;3212;51.460;11.868;2023-08-07T05:04:16;3.87;;;1.83;;
6358;SDS011;3212;51.460;11.868;2023-08-07T05:07:38;3.43;;;1.90;;
6358;SDS011;3212;51.460;11.868;2023-08-07T05:11:08;1.70;;;1.50;;
6358;SDS011;3212;51.460;11.868;2023-08-07T05:14:46;2.43;;;1.87;;
6358;SDS011;3212;51.460;11.868;2023-08-07T05:18:08;2.17;;;1.70;;
6358;SDS011;3212;51.460;11.868;2023-08-07T05:21:31;4.40;;;2.03;;
6358;SDS011;3212;51.460;11.868;2023-08-07T05:24:54;2.70;;;1.90;;
6358;SDS011;3212;51.460;11.868;2023-08-07T05:28:17;3.43;;;2.20;;
6358;SDS011;3212;51.460;11.868;2023-08-07T05:31:40;3.60;;;2.10;;
6358;SDS011;3212;51.460;11.868;2023-08-07T05:35:04;6.20;;;1.90;;
6358;SDS011;3212;51.460;11.868;2023-08-07T05:38:27;1.90;;;1.70;;
6358;SDS011;3212;51.460;11.868;2023-08-07T05:41:49;2.13;;;1.70;;
6358;SDS011;3212;51.460;11.868;2023-08-07T05:45:13;7.00;;;1.90;;
6358;SDS011;3212;51.460;11.868;2023-08-07T05:48:36;3.97;;;1.70;;
6358;SDS011;3212;51.460;11.868;2023-08-07T05:51:59;3.10;;;1.67;;
6358;SDS011;3212;51.460;11.868;2023-08-07T05:55:21;5.33;;;1.70;;
6358;SDS011;3212;51.460;11.868;2023-08-07T05:58:44;2.30;;;1.70;;
6358;SDS011;3212;51.460;11.868;2023-08-07T06:02:06;2.17;;;1.97;;
6358;SDS011;3212;51.460;11.868;2023-08-07T06:05:29;2.20;;;1.60;;
6358;SDS011;3212;51.460;11.868;2023-08-07T06:08:51;2.73;;;1.73;;
6358;SDS011;3212;51.460;11.868;2023-08-07T06:12:14;3.83;;;1.90;;
6358;SDS011;3212;51.460;11.868;2023-08-07T06:15:37;5.40;;;1.90;;
6358;SDS011;3212;51.460;11.868;2023-08-07T06:19:00;1.77;;;1.67;;
6358;SDS011;3212;51.460;11.868;2023-08-07T06:22:23;2.10;;;1.30;;
6358;SDS011;3212;51.460;11.868;2023-08-07T06:25:45;1.67;;;1.57;;
6358;SDS011;3212;51.460;11.868;2023-08-07T06:29:08;1.83;;;1.30;;
6358;SDS011;3212;51.460;11.868;2023-08-07T06:32:31;1.20;;;1.10;;
6358;SDS011;3212;51.460;11.868;2023-08-07T06:35:54;1.33;;;1.20;;
6358;SDS011;3212;51.460;11.868;2023-08-07T06:39:17;1.33;;;1.20;;
6358;SDS011;3212;51.460;11.868;2023-08-07T06:42:39;1.50;;;1.30;;
6358;SDS011;3212;51.460;11.868;2023-08-07T06:46:02;2.00;;;1.30;;
6358;SDS011;3212;51.460;11.868;2023-08-07T06:49:24;1.97;;;1.10;;
6358;SDS011;3212;51.460;11.868;2023-08-07T06:52:47;1.60;;;1.20;;
6358;SDS011;3212;51.460;11.868;2023-08-07T06:56:09;2.90;;;1.40;;
6358;SDS011;3212;51.460;11.868;2023-08-07T06:59:32;2.20;;;1.10;;
6358;SDS011;3212;51.460;11.868;2023-08-07T07:02:54;1.10;;;0.90;;
6358;SDS011;3212;51.460;11.868;2023-08-07T07:06:18;1.33;;;1.10;;
6358;SDS011;3212;51.460;11.868;2023-08-07T07:09:40;1.00;;;0.90;;
6358;SDS011;3212;51.460;11.868;2023-08-07T07:13:02;1.20;;;1.10;;
6358;SDS011;3212;51.460;11.868;2023-08-07T07:16:25;1.60;;;0.80;;
6358;SDS011;3212;51.460;11.868;2023-08-07T07:19:47;2.13;;;1.00;;
6358;SDS011;3212;51.460;11.868;2023-08-07T07:23:10;2.00;;;0.93;;
6358;SDS011;3212;51.460;11.868;2023-08-07T07:26:32;2.62;;;1.02;;
6358;SDS011;3212;51.460;11.868;2023-08-07T07:29:55;1.90;;;0.90;;
6358;SDS011;3212;51.460;11.868;2023-08-07T07:33:17;0.80;;;0.70;;
6358;SDS011;3212;51.460;11.868;2023-08-07T07:36:40;1.20;;;0.80;;
6358;SDS011;3212;51.460;11.868;2023-08-07T07:40:03;1.13;;;0.90;;
6358;SDS011;3212;51.460;11.868;2023-08-07T07:43:26;0.90;;;0.90;;
6358;SDS011;3212;51.460;11.868;2023-08-07T07:46:48;0.80;;;0.80;;
6358;SDS011;3212;51.460;11.868;2023-08-07T07:50:12;1.33;;;1.10;;
6358;SDS011;3212;51.460;11.868;2023-08-07T07:53:35;1.27;;;0.90;;
6358;SDS011;3212;51.460;11.868;2023-08-07T07:56:57;1.27;;;1.00;;
6358;SDS011;3212;51.460;11.868;2023-08-07T08:00:21;1.30;;;0.90;;
6358;SDS011;3212;51.460;11.868;2023-08-07T08:03:43;4.10;;;1.27;;
6358;SDS011;3212;51.460;11.868;2023-08-07T08:07:06;2.63;;;1.27;;
6358;SDS011;3212;51.460;11.868;2023-08-07T08:10:28;1.43;;;1.20;;
6358;SDS011;3212;51.460;11.868;2023-08-07T08:13:51;1.73;;;1.30;;
6358;SDS011;3212;51.460;11.868;2023-08-07T08:17:13;1.60;;;1.27;;
6358;SDS011;3212;51.460;11.868;2023-08-07T08:20:37;1.50;;;1.10;;
6358;SDS011;3212;51.460;11.868;2023-08-07T08:24:00;1.80;;;1.10;;
6358;SDS011;3212;51.460;11.868;2023-08-07T08:27:23;1.67;;;1.20;;
6358;SDS011;3212;51.460;11.868;2023-08-07T08:30:47;0.90;;;0.80;;
6358;SDS011;3212;51.460;11.868;2023-08-07T08:34:10;2.73;;;1.10;;
6358;SDS011;3212;51.460;11.868;2023-08-07T08:37:33;1.20;;;1.10;;
6358;SDS011;3212;51.460;11.868;2023-08-07T08:40:57;1.23;;;0.83;;
6358;SDS011;3212;51.460;11.868;2023-08-07T08:44:19;2.70;;;1.17;;
6358;SDS011;3212;51.460;11.868;2023-08-07T08:47:42;1.57;;;1.10;;
6358;SDS011;3212;51.460;11.868;2023-08-07T08:51:05;0.90;;;0.90;;
6358;SDS011;3212;51.460;11.868;2023-08-07T08:54:28;1.30;;;0.80;;
6358;SDS011;3212;51.460;11.868;2023-08-07T08:57:51;1.20;;;1.00;;
6358;SDS011;3212;51.460;11.868;2023-08-07T09:01:14;1.20;;;1.10;;
6358;SDS011;3212;51.460;11.868;2023-08-07T09:04:37;2.10;;;1.00;;
6358;SDS011;3212;51.460;11.868;2023-08-07T09:07:59;2.80;;;1.10;;
6358;SDS011;3212;51.460;11.868;2023-08-07T09:11:23;2.10;;;0.90;;
6358;SDS011;3212;51.460;11.868;2023-08-07T09:14:49;1.20;;;0.83;;
6358;SDS011;3212;51.460;11.868;2023-08-07T09:18:08;0.90;;;0.90;;
6358;SDS011;3212;51.460;11.868;2023-08-07T09:21:31;1.02;;;0.93;;
6358;SDS011;3212;51.460;11.868;2023-08-07T09:24:54;4.10;;;1.00;;
6358;SDS011;3212;51.460;11.868;2023-08-07T09:28:17;1.10;;;1.00;;
6358;SDS011;3212;51.460;11.868;2023-08-07T09:31:42;1.23;;;1.13;;
6358;SDS011;3212;51.460;11.868;2023-08-07T09:35:02;1.83;;;1.20;;
6358;SDS011;3212;51.460;11.868;2023-08-07T09:38:28;1.40;;;1.30;;
6358;SDS011;3212;51.460;11.868;2023-08-07T09:41:51;1.97;;;1.50;;
6358;SDS011;3212;51.460;11.868;2023-08-07T09:45:20;1.33;;;1.23;;
6358;SDS011;3212;51.460;11.868;2023-08-07T09:48:42;1.50;;;1.20;;
6358;SDS011;3212;51.460;11.868;2023-08-07T09:52:05;1.53;;;1.20;;
6358;SDS011;3212;51.460;11.868;2023-08-07T09:55:28;1.30;;;1.20;;
6358;SDS011;3212;51.460;11.868;2023-08-07T09:58:51;1.67;;;1.10;;
6358;SDS011;3212;51.460;11.868;2023-08-07T10:02:14;1.40;;;1.30;;
6358;SDS011;3212;51.460;11.868;2023-08-07T10:05:36;1.23;;;1.13;;
6358;SDS011;3212;51.460;11.868;2023-08-07T10:08:59;1.30;;;1.20;;
6358;SDS011;3212;51.460;11.868;2023-08-07T10:12:22;1.10;;;1.00;;
6358;SDS011;3212;51.460;11.868;2023-08-07T10:15:45;4.90;;;1.30;;
6358;SDS011;3212;51.460;11.868;2023-08-07T10:19:08;1.10;;;1.00;;
6358;SDS011;3212;51.460;11.868;2023-08-07T10:22:30;1.50;;;0.90;;
6358;SDS011;3212;51.460;11.868;2023-08-07T10:25:52;1.30;;;1.07;;
6358;SDS011;3212;51.460;11.868;2023-08-07T10:29:16;1.10;;;1.00;;
6358;SDS011;3212;51.460;11.868;2023-08-07T10:32:37;1.20;;;1.10;;
6358;SDS011;3212;51.460;11.868;2023-08-07T10:36:01;4.13;;;1.10;;
6358;SDS011;3212;51.460;11.868;2023-08-07T10:39:23;1.00;;;0.90;;
6358;SDS011;3212;51.460;11.868;2023-08-07T10:42:50;3.40;;;1.27;;
6358;SDS011;3212;51.460;11.868;2023-08-07T10:46:15;2.40;;;1.17;;
6358;SDS011;3212;51.460;11.868;2023-08-07T10:49:38;2.83;;;1.10;;
6358;SDS011;3212;51.460;11.868;2023-08-07T10:53:01;0.90;;;0.80;;
6358;SDS011;3212;51.460;11.868;2023-08-07T10:56:30;1.40;;;0.90;;
6358;SDS011;3212;51.460;11.868;2023-08-07T11:00:01;1.20;;;0.80;;
6358;SDS011;3212;51.460;11.868;2023-08-07T11:03:26;2.40;;;1.37;;
6358;SDS011;3212;51.460;11.868;2023-08-07T11:06:49;2.80;;;1.10;;
6358;SDS011;3212;51.460;11.868;2023-08-07T11:10:12;1.20;;;1.10;;
6358;SDS011;3212;51.460;11.868;2023-08-07T11:13:34;1.87;;;1.20;;
6358;SDS011;3212;51.460;11.868;2023-08-07T11:16:57;2.20;;;1.27;;
6358;SDS011;3212;51.460;11.868;2023-08-07T11:20:20;1.67;;;1.10;;
6358;SDS011;3212;51.460;11.868;2023-08-07T11:23:43;1.90;;;1.17;;
6358;SDS011;3212;51.460;11.868;2023-08-07T11:27:07;1.27;;;1.17;;
6358;SDS011;3212;51.460;11.868;2023-08-07T11:30:28;3.63;;;0.97;;
6358;SDS011;3212;51.460;11.868;2023-08-07T11:33:52;1.20;;;1.10;;
6358;SDS011;3212;51.460;11.868;2023-08-07T11:37:16;1.97;;;1.27;;
6358;SDS011;3212;51.460;11.868;2023-08-07T11:40:39;3.43;;;0.80;;
6358;SDS011;3212;51.460;11.868;2023-08-07T11:44:02;2.07;;;1.20;;
6358;SDS011;3212;51.460;11.868;2023-08-07T11:47:24;2.90;;;1.13;;
6358;SDS011;3212;51.460;11.868;2023-08-07T11:50:46;2.90;;;1.20;;
6358;SDS011;3212;51.460;11.868;2023-08-07T11:54:13;1.20;;;1.10;;
6358;SDS011;3212;51.460;11.868;2023-08-07T11:57:31;3.33;;;1.10;;
6358;SDS011;3212;51.460;11.868;2023-08-07T12:00:54;1.10;;;1.00;;
6358;SDS011;3212;51.460;11.868;2023-08-07T12:04:17;1.27;;;0.83;;
6358;SDS011;3212;51.460;11.868;2023-08-07T12:07:39;3.70;;;0.93;;
6358;SDS011;3212;51.460;11.868;2023-08-07T12:11:02;1.40;;;1.10;;
6358;SDS011;3212;51.460;11.868;2023-08-07T12:14:28;4.10;;;1.00;;
6358;SDS011;3212;51.460;11.868;2023-08-07T12:17:59;3.60;;;1.27;;
6358;SDS011;3212;51.460;11.868;2023-08-07T12:21:14;1.90;;;1.20;;
6358;SDS011;3212;51.460;11.868;2023-08-07T12:24:36;1.53;;;1.10;;
6358;SDS011;3212;51.460;11.868;2023-08-07T12:27:59;2.43;;;1.70;;
6358;SDS011;3212;51.460;11.868;2023-08-07T12:31:22;1.20;;;1.10;;
6358;SDS011;3212;51.460;11.868;2023-08-07T12:34:44;2.80;;;1.00;;
6358;SDS011;3212;51.460;11.868;2023-08-07T12:38:07;1.00;;;0.90;;
6358;SDS011;3212;51.460;11.868;2023-08-07T12:41:30;1.50;;;0.90;;
6358;SDS011;3212;51.460;11.868;2023-08-07T12:44:54;1.03;;;0.80;;
6358;SDS011;3212;51.460;11.868;2023-08-07T12:48:16;0.83;;;0.70;;
6358;SDS011;3212;51.460;11.868;2023-08-07T12:51:39;1.37;;;0.90;;
6358;SDS011;3212;51.460;11.868;2023-08-07T12:55:01;2.60;;;0.80;;
6358;SDS011;3212;51.460;11.868;2023-08-07T12:58:24;1.00;;;0.80;;
6358;SDS011;3212;51.460;11.868;2023-08-07T13:01:48;0.90;;;0.80;;
6358;SDS011;3212;51.460;11.868;2023-08-07T13:05:10;1.70;;;1.10;;
6358;SDS011;3212;51.460;11.868;2023-08-07T13:08:33;2.20;;;0.90;;
6358;SDS011;3212;51.460;11.868;2023-08-07T13:11:55;2.10;;;1.00;;
6358;SDS011;3212;51.460;11.868;2023-08-07T13:15:17;1.67;;;1.00;;
6358;SDS011;3212;51.460;11.868;2023-08-07T13:18:40;1.47;;;1.00;;
6358;SDS011;3212;51.460;11.868;2023-08-07T13:22:03;2.43;;;1.13;;
6358;SDS011;3212;51.460;11.868;2023-08-07T13:25:27;1.33;;;0.70;;
6358;SDS011;3212;51.460;11.868;2023-08-07T13:28:49;1.53;;;0.70;;
6358;SDS011;3212;51.460;11.868;2023-08-07T13:32:12;2.50;;;1.23;;
6358;SDS011;3212;51.460;11.868;2023-08-07T13:35:35;1.47;;;0.80;;
6358;SDS011;3212;51.460;11.868;2023-08-07T13:38:57;1.47;;;0.80;;
6358;SDS011;3212;51.460;11.868;2023-08-07T13:42:20;1.93;;;1.30;;
6358;SDS011;3212;51.460;11.868;2023-08-07T13:45:42;3.07;;;1.03;;
6358;SDS011;3212;51.460;11.868;2023-08-07T13:49:05;1.70;;;1.10;;
6358;SDS011;3212;51.460;11.868;2023-08-07T13:52:28;3.77;;;1.50;;
6358;SDS011;3212;51.460;11.868;2023-08-07T13:55:51;2.13;;;0.90;;
6358;SDS011;3212;51.460;11.868;2023-08-07T13:59:13;1.00;;;0.80;;
6358;SDS011;3212;51.460;11.868;2023-08-07T14:02:36;1.83;;;0.90;;
6358;SDS011;3212;51.460;11.868;2023-08-07T14:05:59;0.80;;;0.70;;
6358;SDS011;3212;51.460;11.868;2023-08-07T14:09:22;1.87;;;0.90;;
6358;SDS011;3212;51.460;11.868;2023-08-07T14:12:45;1.07;;;0.80;;
6358;SDS011;3212;51.460;11.868;2023-08-07T14:16:08;4.93;;;1.20;;
6358;SDS011;3212;51.460;11.868;2023-08-07T14:19:30;2.00;;;1.30;;
6358;SDS011;3212;51.460;11.868;2023-08-07T14:22:53;1.20;;;0.90;;
6358;SDS011;3212;51.460;11.868;2023-08-07T14:26:15;1.63;;;1.00;;
6358;SDS011;3212;51.460;11.868;2023-08-07T14:29:38;4.23;;;1.47;;
6358;SDS011;3212;51.460;11.868;2023-08-07T14:33:01;0.80;;;0.80;;
6358;SDS011;3212;51.460;11.868;2023-08-07T14:36:24;2.90;;;1.10;;
6358;SDS011;3212;51.460;11.868;2023-08-07T14:39:47;1.40;;;0.80;;
6358;SDS011;3212;51.460;11.868;2023-08-07T14:43:10;1.87;;;1.00;;
6358;SDS011;3212;51.460;11.868;2023-08-07T14:46:33;2.13;;;1.10;;
6358;SDS011;3212;51.460;11.868;2023-08-07T14:49:55;1.00;;;0.90;;
6358;SDS011;3212;51.460;11.868;2023-08-07T14:53:18;1.07;;;0.97;;
6358;SDS011;3212;51.460;11.868;2023-08-07T14:56:41;1.37;;;0.70;;
6358;SDS011;3212;51.460;11.868;2023-08-07T15:00:03;1.70;;;0.93;;
6358;SDS011;3212;51.460;11.868;2023-08-07T15:03:27;2.90;;;0.90;;
6358;SDS011;3212;51.460;11.868;2023-08-07T15:06:50;1.60;;;1.15;;
6358;SDS011;3212;51.460;11.868;2023-08-07T15:10:13;2.23;;;0.87;;
6358;SDS011;3212;51.460;11.868;2023-08-07T15:13:36;2.40;;;0.90;;
6358;SDS011;3212;51.460;11.868;2023-08-07T15:16:58;2.33;;;0.77;;
6358;SDS011;3212;51.460;11.868;2023-08-07T15:20:21;1.50;;;1.10;;
6358;SDS011;3212;51.460;11.868;2023-08-07T15:23:44;3.07;;;1.87;;
6358;SDS011;3212;51.460;11.868;2023-08-07T15:27:06;1.33;;;0.97;;
6358;SDS011;3212;51.460;11.868;2023-08-07T15:30:29;1.17;;;0.80;;
6358;SDS011;3212;51.460;11.868;2023-08-07T15:33:52;4.20;;;1.23;;
6358;SDS011;3212;51.460;11.868;2023-08-07T15:37:15;2.30;;;1.43;;
6358;SDS011;3212;51.460;11.868;2023-08-07T15:40:39;5.13;;;1.50;;
6358;SDS011;3212;51.460;11.868;2023-08-07T15:44:00;2.80;;;1.83;;
6358;SDS011;3212;51.460;11.868;2023-08-07T15:47:23;4.27;;;1.40;;
6358;SDS011;3212;51.460;11.868;2023-08-07T15:50:46;6.60;;;1.40;;
6358;SDS011;3212;51.460;11.868;2023-08-07T15:54:09;4.07;;;1.63;;
6358;SDS011;3212;51.460;11.868;2023-08-07T15:57:31;3.00;;;1.60;;
6358;SDS011;3212;51.460;11.868;2023-08-07T16:00:54;5.60;;;1.53;;
6358;SDS011;3212;51.460;11.868;2023-08-07T16:04:16;1.67;;;1.57;;
6358;SDS011;3212;51.460;11.868;2023-08-07T16:07:39;2.10;;;1.50;;
6358;SDS011;3212;51.460;11.868;2023-08-07T16:11:01;3.60;;;1.40;;
6358;SDS011;3212;51.460;11.868;2023-08-07T16:14:24;2.17;;;1.60;;
6358;SDS011;3212;51.460;11.868;2023-08-07T16:17:46;4.27;;;1.43;;
6358;SDS011;3212;51.460;11.868;2023-08-07T16:21:09;4.23;;;1.40;;
6358;SDS011;3212;51.460;11.868;2023-08-07T16:24:32;2.73;;;1.30;;
6358;SDS011;3212;51.460;11.868;2023-08-07T16:27:54;3.43;;;1.50;;
6358;SDS011;3212;51.460;11.868;2023-08-07T16:31:16;3.63;;;1.37;;
6358;SDS011;3212;51.460;11.868;2023-08-07T16:34:39;2.30;;;1.60;;
6358;SDS011;3212;51.460;11.868;2023-08-07T16:38:02;7.70;;;2.20;;
6358;SDS011;3212;51.460;11.868;2023-08-07T16:41:25;4.40;;;1.33;;
6358;SDS011;3212;51.460;11.868;2023-08-07T16:44:49;3.37;;;1.80;;
6358;SDS011;3212;51.460;11.868;2023-08-07T16:48:11;3.90;;;1.73;;
6358;SDS011;3212;51.460;11.868;2023-08-07T16:51:34;5.03;;;1.80;;
6358;SDS011;3212;51.460;11.868;2023-08-07T16:54:57;7.23;;;1.80;;
6358;SDS011;3212;51.460;11.868;2023-08-07T16:58:19;3.27;;;2.00;;
6358;SDS011;3212;51.460;11.868;2023-08-07T17:01:42;3.50;;;1.80;;
6358;SDS011;3212;51.460;11.868;2023-08-07T17:05:06;4.80;;;1.77;;
6358;SDS011;3212;51.460;11.868;2023-08-07T17:08:30;3.03;;;1.80;;
6358;SDS011;3212;51.460;11.868;2023-08-07T17:11:52;2.67;;;1.73;;
6358;SDS011;3212;51.460;11.868;2023-08-07T17:15:15;3.73;;;1.70;;
6358;SDS011;3212;51.460;11.868;2023-08-07T17:18:37;6.13;;;1.97;;
6358;SDS011;3212;51.460;11.868;2023-08-07T17:22:00;7.27;;;1.70;;
6358;SDS011;3212;51.460;11.868;2023-08-07T17:25:23;2.53;;;1.50;;
6358;SDS011;3212;51.460;11.868;2023-08-07T17:28:46;2.13;;;1.63;;
6358;SDS011;3212;51.460;11.868;2023-08-07T17:32:09;7.37;;;2.00;;
6358;SDS011;3212;51.460;11.868;2023-08-07T17:35:33;2.50;;;1.80;;
6358;SDS011;3212;51.460;11.868;2023-08-07T17:38:55;2.90;;;1.80;;
6358;SDS011;3212;51.460;11.868;2023-08-07T17:42:17;3.13;;;1.70;;
6358;SDS011;3212;51.460;11.868;2023-08-07T17:45:40;4.57;;;2.10;;
6358;SDS011;3212;51.460;11.868;2023-08-07T17:49:02;2.70;;;1.87;;
6358;SDS011;3212;51.460;11.868;2023-08-07T17:52:26;3.70;;;1.90;;
6358;SDS011;3212;51.460;11.868;2023-08-07T17:55:49;4.73;;;1.77;;
6358;SDS011;3212;51.460;11.868;2023-08-07T17:59:11;3.93;;;1.70;;
6358;SDS011;3212;51.460;11.868;2023-08-07T18:02:34;4.80;;;2.00;;
6358;SDS011;3212;51.460;11.868;2023-08-07T18:05:57;2.70;;;1.50;;
6358;SDS011;3212;51.460;11.868;2023-08-07T18:09:19;7.27;;;1.80;;
6358;SDS011;3212;51.460;11.868;2023-08-07T18:12:42;4.33;;;2.03;;
6358;SDS011;3212;51.460;11.868;2023-08-07T18:16:04;2.77;;;1.87;;
6358;SDS011;3212;51.460;11.868;2023-08-07T18:19:28;5.47;;;2.20;;
6358;SDS011;3212;51.460;11.868;2023-08-07T18:22:50;5.40;;;1.73;;
6358;SDS011;3212;51.460;11.868;2023-08-07T18:26:13;4.53;;;2.15;;
6358;SDS011;3212;51.460;11.868;2023-08-07T18:29:36;5.53;;;2.10;;
6358;SDS011;3212;51.460;11.868;2023-08-07T18:32:58;4.87;;;1.80;;
6358;SDS011;3212;51.460;11.868;2023-08-07T18:36:22;6.00;;;1.87;;
6358;SDS011;3212;51.460;11.868;2023-08-07T18:39:45;6.00;;;1.63;;
6358;SDS011;3212;51.460;11.868;2023-08-07T18:43:08;2.90;;;1.63;;
6358;SDS011;3212;51.460;11.868;2023-08-07T18:46:32;7.33;;;1.50;;
6358;SDS011;3212;51.460;11.868;2023-08-07T18:49:55;3.20;;;1.67;;
6358;SDS011;3212;51.460;11.868;2023-08-07T18:53:17;3.17;;;1.80;;
6358;SDS011;3212;51.460;11.868;2023-08-07T18:56:40;4.10;;;1.70;;
6358;SDS011;3212;51.460;11.868;2023-08-07T19:00:04;6.20;;;1.53;;
6358;SDS011;3212;51.460;11.868;2023-08-07T19:03:27;2.60;;;1.70;;
6358;SDS011;3212;51.460;11.868;2023-08-07T19:06:51;7.22;;;1.80;;
6358;SDS011;3212;51.460;11.868;2023-08-07T19:10:14;3.40;;;1.57;;
6358;SDS011;3212;51.460;11.868;2023-08-07T19:13:37;4.03;;;2.03;;
6358;SDS011;3212;51.460;11.868;2023-08-07T19:16:59;3.00;;;2.00;;
6358;SDS011;3212;51.460;11.868;2023-08-07T19:20:22;4.43;;;2.07;;
6358;SDS011;3212;51.460;11.868;2023-08-07T19:23:44;3.27;;;1.50;;
6358;SDS011;3212;51.460;11.868;2023-08-07T19:27:07;2.83;;;1.20;;
6358;SDS011;3212;51.460;11.868;2023-08-07T19:30:30;3.33;;;1.20;;
6358;SDS011;3212;51.460;11.868;2023-08-07T19:33:53;1.60;;;1.20;;
6358;SDS011;3212;51.460;11.868;2023-08-07T19:37:16;4.27;;;1.40;;
6358;SDS011;3212;51.460;11.868;2023-08-07T19:40:39;1.80;;;1.30;;
6358;SDS011;3212;51.460;11.868;2023-08-07T19:44:01;2.50;;;1.12;;
6358;SDS011;3212;51.460;11.868;2023-08-07T19:47:23;3.90;;;1.50;;
6358;SDS011;3212;51.460;11.868;2023-08-07T19:50:46;2.07;;;1.60;;
6358;SDS011;3212;51.460;11.868;2023-08-07T19:54:09;3.10;;;1.57;;
6358;SDS011;3212;51.460;11.868;2023-08-07T19:57:31;2.27;;;1.63;;
6358;SDS011;3212;51.460;11.868;2023-08-07T20:00:54;4.40;;;1.70;;
6358;SDS011;3212;51.460;11.868;2023-08-07T20:04:17;3.03;;;1.40;;
6358;SDS011;3212;51.460;11.868;2023-08-07T20:07:40;3.43;;;1.50;;
6358;SDS011;3212;51.460;11.868;2023-08-07T20:11:02;3.93;;;1.93;;
6358;SDS011;3212;51.460;11.868;2023-08-07T20:14:25;2.10;;;1.60;;
6358;SDS011;3212;51.460;11.868;2023-08-07T20:17:48;4.60;;;1.63;;
6358;SDS011;3212;51.460;11.868;2023-08-07T20:21:10;3.27;;;1.47;;
6358;SDS011;3212;51.460;11.868;2023-08-07T20:24:33;3.87;;;1.60;;
6358;SDS011;3212;51.460;11.868;2023-08-07T20:27:55;3.00;;;1.90;;
6358;SDS011;3212;51.460;11.868;2023-08-07T20:31:19;4.50;;;1.73;;
6358;SDS011;3212;51.460;11.868;2023-08-07T20:34:41;2.80;;;1.63;;
6358;SDS011;3212;51.460;11.868;2023-08-07T20:38:03;4.17;;;1.63;;
6358;SDS011;3212;51.460;11.868;2023-08-07T20:41:27;3.92;;;1.90;;